Eastern, KY (41622)

5:50 AM EDT on August 04, 2015 (GMT -0400)
Middle Creek VFD Station 2 | | Change Station
CLOSE
Current Station
Personal Weather Station
Location: Prestonsburg, KY
Elevation: 689 ft
Nearby Weather Stations

Elev 689 ft 37.64 °N, 82.85 °W | Updated 4 minutes ago

Clear
Clear
66.1 °F
Feels Like 66.1 °F
N
0.0
Wind Variable Wind from North

Today
High -- | Low -- °F
--% Chance of Precip.
Yesterday
High -- | Low -- °F
Precip. -- in
6:37 AM 8:36 PM
Waning Gibbous, 79% visible
Pressure 29.97 in
Visibility 10.0 miles
Clouds Clear
Dew Point 65 °F
Humidity 96%
Rainfall 0.00 in
Snow Depth Not available.
UV 0 out of 12
Pollen 4.80 out of 12
Air Quality Not available.
Flu Activity Not available.
METAR KSJS 040935Z AUTO 22004KT 10SM CLR 20/19 A2997 RMK AO2 T01970187

More Conditions Fewer Conditions

Pressure 29.97 in
Visibility 10.0 miles
Clouds Clear
Dew Point 65 °F
Humidity 96%
Rainfall 0.00 in
Snow Depth Not available.
UV 0 out of 12
Pollen 4.80 out of 12
Air Quality Not available.
Flu Activity Not available.
METAR KSJS 040935Z AUTO 22004KT 10SM CLR 20/19 A2997 RMK AO2 T01970187

More Conditions Fewer Conditions

10-Day Weather Forecast

×

Almanac

Astronomy

Aug. 04, 2015 Rise Set
Actual Time
Civil Twilight
Nautical Twilight
Astronomical Twilight
Moon
Length of Visible Light
Length of Day
Tomorrow will be .
, % of the Moon is Illuminated

Today's Extremes

State Highs State Lows

Community

WunderPhotos

Upload Photos

1,843,880 photos uploaded!

WunderBlogs® & News

Nearby

Air Quality

  Air Quality AQ Index Pollutant
Not available.

Snow Depth

Station Depth Elevation

Earthquake Activity

City Distance Mag. Time & Date
Minimum magnitude displayed is 2.5.

Coastal Water Temperatures

Place Temperature

Stations

Nearby Weather Stations

Station Location Temp. Windchill Dew Point Humidity Wind Precip. Elev Updated Type